Time;durP1;ratioP1;P1;durP2;ratioP2;P2;SDS_P1;SDS_P2;PMS_P1;PMS_P2;Temp;Humidity;BMP_temperature;BMP_pressure;BME280_temperature;BME280_humidity;BME280_pressure;Samples;Min_cycle;Max_cycle;Signal;HPM_P1;HPM_P2
2021/07/04 00:02:24;;;;;;;7.38;5.78;;;18.70;89.40;;;;;;5092331;28;20708;-67
2021/07/04 00:04:49;;;;;;;7.25;5.50;;;18.70;89.40;;;;;;5090297;28;20475;-67
2021/07/04 00:07:15;;;;;;;7.50;5.80;;;18.70;89.00;;;;;;5091408;28;20028;-67
2021/07/04 00:09:40;;;;;;;7.30;5.28;;;18.70;89.10;;;;;;5072417;28;20028;-66
2021/07/04 00:12:08;;;;;;;10.15;5.63;;;18.60;88.90;;;;;;5082995;28;20024;-66
2021/07/04 00:14:34;;;;;;;8.38;5.47;;;18.60;89.00;;;;;;5074971;28;20128;-67
2021/07/04 00:17:00;;;;;;;5.88;5.20;;;18.50;89.00;;;;;;5073914;28;20050;-66
2021/07/04 00:19:26;;;;;;;8.40;5.35;;;18.50;89.20;;;;;;5091772;28;20024;-66
2021/07/04 00:21:52;;;;;;;7.47;5.38;;;18.50;89.40;;;;;;5091861;28;20032;-66
2021/07/04 00:24:17;;;;;;;8.13;5.60;;;18.50;89.70;;;;;;5082719;28;20033;-66
2021/07/04 00:26:43;;;;;;;8.57;5.80;;;18.50;89.80;;;;;;5077243;28;20055;-66
2021/07/04 00:29:09;;;;;;;8.65;6.05;;;18.50;89.60;;;;;;5086259;28;20024;-67
2021/07/04 00:31:34;;;;;;;7.93;5.90;;;18.50;89.50;;;;;;5090063;28;20032;-67
2021/07/04 00:34:01;;;;;;;8.75;5.90;;;18.40;89.40;;;;;;5091101;28;20032;-66
2021/07/04 00:36:26;;;;;;;6.78;5.70;;;18.40;89.80;;;;;;5090566;28;20026;-66
2021/07/04 00:38:52;;;;;;;7.32;5.55;;;18.30;90.00;;;;;;5091835;28;20110;-66
2021/07/04 00:41:18;;;;;;;7.47;5.95;;;18.40;90.20;;;;;;5073272;28;20024;-66
2021/07/04 00:43:44;;;;;;;10.02;6.53;;;18.40;90.10;;;;;;5090700;28;20096;-66
2021/07/04 00:46:10;;;;;;;8.65;6.43;;;18.40;90.10;;;;;;5087454;28;20030;-65
2021/07/04 00:48:36;;;;;;;6.78;6.07;;;18.40;90.20;;;;;;5087928;28;20074;-66
2021/07/04 00:51:02;;;;;;;6.88;5.75;;;18.40;90.20;;;;;;5090713;28;20028;-66
2021/07/04 00:53:28;;;;;;;7.90;5.65;;;18.40;90.30;;;;;;5084744;28;20067;-66
2021/07/04 00:55:54;;;;;;;7.05;5.90;;;18.50;90.30;;;;;;5089811;28;20056;-66
2021/07/04 00:58:22;;;;;;;7.20;5.78;;;18.50;90.20;;;;;;5090511;28;20050;-67
2021/07/04 01:00:49;;;;;;;7.88;5.75;;;18.40;90.20;;;;;;5072810;28;20059;-66
2021/07/04 01:03:15;;;;;;;7.07;5.80;;;18.50;90.30;;;;;;5091037;28;20028;-67
2021/07/04 01:05:42;;;;;;;6.93;6.03;;;18.50;90.40;;;;;;5089750;28;20024;-67
2021/07/04 01:08:09;;;;;;;13.77;6.18;;;18.40;90.40;;;;;;5086165;28;20032;-66
2021/07/04 01:10:36;;;;;;;6.47;5.45;;;18.40;90.30;;;;;;5080565;28;20051;-66
2021/07/04 01:13:04;;;;;;;6.75;5.82;;;18.40;90.30;;;;;;5081649;28;20038;-67
2021/07/04 01:15:31;;;;;;;7.75;6.20;;;18.40;90.40;;;;;;5081723;28;20066;-65
2021/07/04 01:17:59;;;;;;;9.18;6.03;;;18.40;90.50;;;;;;5090435;28;20031;-66
2021/07/04 01:20:26;;;;;;;7.30;5.95;;;18.40;90.50;;;;;;5090684;28;20024;-67
2021/07/04 01:23:03;;;;;;;10.57;6.18;;;18.40;90.50;;;;;;5072311;28;20028;-67
2021/07/04 01:25:31;;;;;;;8.25;5.60;;;18.30;90.50;;;;;;5052372;28;20101;-66
2021/07/04 01:27:58;;;;;;;8.43;5.78;;;18.30;90.50;;;;;;5089092;28;20047;-67
2021/07/04 01:30:24;;;;;;;7.95;5.80;;;18.20;90.50;;;;;;5088258;28;20503;-67
2021/07/04 01:32:50;;;;;;;7.53;6.03;;;18.20;90.50;;;;;;5082293;28;20127;-67
2021/07/04 01:35:16;;;;;;;6.13;5.30;;;18.10;90.60;;;;;;5088463;28;20024;-67
2021/07/04 01:37:41;;;;;;;8.68;5.70;;;18.10;90.80;;;;;;5088841;28;20028;-67
2021/07/04 01:40:09;;;;;;;7.78;5.78;;;18.00;90.80;;;;;;5072377;28;20110;-67
2021/07/04 01:42:35;;;;;;;8.00;5.55;;;18.00;90.90;;;;;;5089271;28;20032;-67
2021/07/04 01:45:01;;;;;;;9.60;5.50;;;18.00;91.00;;;;;;5071149;28;20028;-66
2021/07/04 01:47:26;;;;;;;7.28;6.00;;;18.00;91.10;;;;;;5089920;28;20032;-66
2021/07/04 01:49:52;;;;;;;8.85;5.95;;;18.00;90.90;;;;;;5090879;28;20024;-67
2021/07/04 01:52:18;;;;;;;8.80;6.43;;;18.00;91.00;;;;;;5089389;28;20024;-66
2021/07/04 01:54:43;;;;;;;8.30;6.10;;;17.90;91.00;;;;;;5065522;28;20493;-66
2021/07/04 01:57:12;;;;;;;7.78;5.68;;;17.90;91.10;;;;;;5077444;28;20028;-66
2021/07/04 01:59:43;;;;;;;7.90;5.82;;;17.90;91.10;;;;;;5090493;28;20048;-65
2021/07/04 02:02:09;;;;;;;6.97;5.22;;;17.90;91.20;;;;;;5051669;28;20039;-66
2021/07/04 02:04:41;;;;;;;7.95;5.65;;;17.90;91.20;;;;;;5067589;28;20028;-65
2021/07/04 02:07:17;;;;;;;6.95;5.18;;;17.90;91.40;;;;;;5089492;28;20418;-67
2021/07/04 02:09:46;;;;;;;5.97;5.20;;;17.90;91.30;;;;;;5090018;28;20135;-66
2021/07/04 02:12:14;;;;;;;7.45;5.50;;;17.80;91.20;;;;;;5061895;28;20031;-66
2021/07/04 02:14:40;;;;;;;6.70;5.07;;;17.80;91.20;;;;;;5088621;28;20020;-66
2021/07/04 02:17:06;;;;;;;7.45;5.88;;;17.80;91.30;;;;;;5088832;28;20036;-65
2021/07/04 02:19:33;;;;;;;6.70;4.90;;;17.80;91.20;;;;;;5072083;28;20031;-67
2021/07/04 02:21:59;;;;;;;6.53;5.25;;;17.80;91.20;;;;;;5089430;28;20029;-67
2021/07/04 02:24:25;;;;;;;7.15;5.47;;;17.80;91.30;;;;;;5085626;28;20099;-65
2021/07/04 02:26:51;;;;;;;5.75;5.10;;;17.80;91.30;;;;;;5076974;28;20502;-67
2021/07/04 02:29:17;;;;;;;6.75;4.95;;;17.80;91.30;;;;;;5066976;28;20091;-66
2021/07/04 02:31:44;;;;;;;6.90;4.90;;;17.80;91.30;;;;;;5089293;28;20016;-66
2021/07/04 02:34:10;;;;;;;5.97;4.68;;;17.80;91.30;;;;;;5089964;28;20042;-67
2021/07/04 02:36:36;;;;;;;5.60;4.82;;;17.80;91.20;;;;;;5069932;28;20032;-67
2021/07/04 02:39:01;;;;;;;6.70;4.68;;;17.70;91.30;;;;;;5089736;28;20164;-67
2021/07/04 02:41:27;;;;;;;5.63;4.60;;;17.70;91.30;;;;;;5070430;28;20115;-67
2021/07/04 02:43:53;;;;;;;6.65;5.20;;;17.70;91.40;;;;;;5070873;28;20031;-67
2021/07/04 02:46:18;;;;;;;7.18;5.15;;;17.70;91.30;;;;;;5088751;28;20028;-67
2021/07/04 02:48:44;;;;;;;6.88;4.93;;;17.70;91.30;;;;;;5089473;28;20028;-67
2021/07/04 02:51:09;;;;;;;6.45;5.20;;;17.60;91.30;;;;;;5070706;28;20020;-67
2021/07/04 02:53:35;;;;;;;5.60;4.88;;;17.60;91.30;;;;;;5082397;28;20441;-65
2021/07/04 02:56:00;;;;;;;8.25;5.07;;;17.60;91.30;;;;;;5063135;28;20056;-67
2021/07/04 02:58:26;;;;;;;7.60;4.93;;;17.60;91.40;;;;;;5078281;28;20028;-67
2021/07/04 03:00:52;;;;;;;8.80;5.18;;;17.50;91.40;;;;;;5083641;28;20136;-67
2021/07/04 03:03:18;;;;;;;6.90;4.68;;;17.50;91.40;;;;;;5089781;28;20024;-67
2021/07/04 03:05:44;;;;;;;7.47;4.63;;;17.50;91.50;;;;;;5088184;28;20036;-67
2021/07/04 03:08:10;;;;;;;5.90;5.28;;;17.50;91.50;;;;;;5089748;28;20043;-67
2021/07/04 03:10:35;;;;;;;6.82;5.20;;;17.50;91.50;;;;;;5087177;28;20476;-67
2021/07/04 03:13:01;;;;;;;7.22;4.93;;;17.40;91.50;;;;;;5076649;28;20169;-67
2021/07/04 03:15:27;;;;;;;8.02;5.25;;;17.40;91.50;;;;;;5091972;28;20121;-67
2021/07/04 03:17:52;;;;;;;4.95;4.45;;;17.40;91.60;;;;;;5091326;28;20032;-67
2021/07/04 03:20:18;;;;;;;6.38;4.43;;;17.40;91.60;;;;;;5073270;28;20013;-67
2021/07/04 03:22:45;;;;;;;6.78;5.00;;;17.40;91.60;;;;;;5092122;28;20086;-67
2021/07/04 03:25:13;;;;;;;6.22;4.90;;;17.50;91.60;;;;;;5075453;28;20016;-66
2021/07/04 03:27:39;;;;;;;9.05;4.95;;;17.40;91.60;;;;;;5084112;28;20038;-67
2021/07/04 03:30:09;;;;;;;5.32;4.80;;;17.40;91.60;;;;;;5087063;28;20028;-67
2021/07/04 03:32:35;;;;;;;5.10;4.32;;;17.40;91.60;;;;;;5089675;28;20054;-66
2021/07/04 03:35:01;;;;;;;8.30;4.47;;;17.40;91.50;;;;;;5100863;28;20040;-66
2021/07/04 03:37:27;;;;;;;5.00;4.50;;;17.40;91.60;;;;;;5093037;28;20135;-66
2021/07/04 03:39:52;;;;;;;7.35;4.97;;;17.40;91.60;;;;;;5093608;28;20035;-66
2021/07/04 03:42:18;;;;;;;6.80;4.90;;;17.40;91.80;;;;;;5093286;28;20384;-66
2021/07/04 03:44:43;;;;;;;9.35;4.90;;;17.40;91.60;;;;;;5092259;28;20030;-66
2021/07/04 03:47:09;;;;;;;7.70;5.00;;;17.40;91.60;;;;;;5075088;28;20119;-66
2021/07/04 03:49:35;;;;;;;5.47;4.60;;;17.40;91.60;;;;;;5093030;28;20024;-66
2021/07/04 03:52:00;;;;;;;6.07;4.63;;;17.30;91.70;;;;;;5092774;28;20024;-65
2021/07/04 03:54:26;;;;;;;6.25;4.45;;;17.40;91.70;;;;;;5089105;28;20035;-67
2021/07/04 03:56:52;;;;;;;5.40;4.47;;;17.30;91.70;;;;;;5056289;28;20049;-67
2021/07/04 03:59:17;;;;;;;6.78;4.68;;;17.30;91.70;;;;;;5090452;28;20441;-67
2021/07/04 04:01:43;;;;;;;6.68;5.10;;;17.30;91.70;;;;;;5092716;28;20022;-66
2021/07/04 04:04:08;;;;;;;7.90;4.68;;;17.40;91.70;;;;;;5092133;28;20696;-66
2021/07/04 04:06:34;;;;;;;5.53;4.57;;;17.40;91.70;;;;;;5091384;28;20034;-66
2021/07/04 04:09:00;;;;;;;6.10;4.40;;;17.40;91.80;;;;;;5092396;28;20486;-66
2021/07/04 04:11:25;;;;;;;5.93;4.60;;;17.40;91.90;;;;;;5085245;28;20103;-67
2021/07/04 04:13:51;;;;;;;4.40;4.00;;;17.40;91.80;;;;;;5083268;28;20102;-66
2021/07/04 04:16:16;;;;;;;6.95;4.55;;;17.40;91.80;;;;;;5091170;28;20028;-66
2021/07/04 04:18:43;;;;;;;5.43;3.95;;;17.50;91.90;;;;;;5091619;28;20115;-67
2021/07/04 04:21:09;;;;;;;7.32;4.65;;;17.50;91.90;;;;;;5092114;28;20464;-66
2021/07/04 04:23:35;;;;;;;5.28;4.35;;;17.40;91.80;;;;;;5084980;28;20028;-66
2021/07/04 04:26:02;;;;;;;6.13;4.65;;;17.40;91.70;;;;;;5089504;28;20098;-67
2021/07/04 04:28:27;;;;;;;5.30;4.03;;;17.40;91.80;;;;;;5091217;28;20070;-66
2021/07/04 04:30:53;;;;;;;7.20;4.53;;;17.40;91.70;;;;;;5089792;28;20055;-67
2021/07/04 04:33:20;;;;;;;4.78;4.30;;;17.40;91.80;;;;;;5091971;28;20619;-67
2021/07/04 04:35:45;;;;;;;6.30;4.50;;;17.40;91.80;;;;;;5089221;28;20036;-66
2021/07/04 04:38:11;;;;;;;5.70;4.63;;;17.40;91.90;;;;;;5089824;28;20575;-66
2021/07/04 04:40:36;;;;;;;5.03;4.28;;;17.40;91.90;;;;;;5091370;28;20102;-67
2021/07/04 04:43:02;;;;;;;4.85;4.25;;;17.50;92.00;;;;;;5091977;28;20454;-66
2021/07/04 04:45:28;;;;;;;6.93;4.50;;;17.50;91.90;;;;;;5089844;28;20400;-66
2021/07/04 04:47:54;;;;;;;7.22;4.50;;;17.40;91.90;;;;;;5073277;28;20039;-66
2021/07/04 04:50:19;;;;;;;8.15;4.50;;;17.50;91.90;;;;;;5076925;28;20036;-67
2021/07/04 04:52:45;;;;;;;5.53;4.45;;;17.40;91.90;;;;;;5088161;28;20037;-66
2021/07/04 04:55:11;;;;;;;8.13;4.40;;;17.40;91.90;;;;;;5068171;28;20036;-67
2021/07/04 04:57:37;;;;;;;5.25;4.32;;;17.40;91.90;;;;;;5092042;28;20024;-67
2021/07/04 05:00:10;;;;;;;4.95;4.10;;;17.50;92.00;;;;;;5090175;28;20046;-66
2021/07/04 05:02:36;;;;;;;4.35;3.95;;;17.50;92.00;;;;;;5072777;28;20020;-66
2021/07/04 05:05:02;;;;;;;6.88;4.60;;;17.60;92.00;;;;;;5080578;28;20027;-66
2021/07/04 05:07:29;;;;;;;4.68;4.18;;;17.70;92.10;;;;;;5090841;28;20028;-66
2021/07/04 05:09:54;;;;;;;4.47;3.75;;;17.70;92.10;;;;;;5081153;28;20069;-66
2021/07/04 05:12:20;;;;;;;5.68;4.30;;;17.80;92.00;;;;;;5072798;28;20028;-66
2021/07/04 05:14:45;;;;;;;5.35;4.55;;;17.90;91.90;;;;;;5087236;28;20028;-66
2021/07/04 05:17:11;;;;;;;9.02;6.55;;;17.90;91.80;;;;;;5090890;28;20422;-66
2021/07/04 05:19:37;;;;;;;6.18;5.03;;;18.00;91.80;;;;;;5090850;28;20030;-66
2021/07/04 05:22:02;;;;;;;5.32;4.82;;;18.10;91.80;;;;;;5090265;28;20036;-67
2021/07/04 05:24:28;;;;;;;5.30;3.90;;;18.20;91.70;;;;;;5083215;28;20455;-65
2021/07/04 05:26:53;;;;;;;6.35;4.05;;;18.30;91.50;;;;;;5086717;28;20039;-66
2021/07/04 05:29:19;;;;;;;5.63;4.30;;;18.30;91.60;;;;;;5089191;28;20016;-67
2021/07/04 05:31:45;;;;;;;4.53;4.13;;;18.40;91.50;;;;;;5088186;28;20376;-66
2021/07/04 05:34:10;;;;;;;5.75;4.38;;;18.40;91.70;;;;;;5086477;28;20031;-66
2021/07/04 05:36:36;;;;;;;6.53;4.53;;;18.40;91.40;;;;;;5089351;28;20024;-67
2021/07/04 05:39:01;;;;;;;5.53;4.00;;;18.40;91.30;;;;;;5070861;28;20035;-66
2021/07/04 05:41:27;;;;;;;7.45;4.63;;;18.40;91.30;;;;;;5089976;28;20479;-65
2021/07/04 05:43:53;;;;;;;5.38;4.18;;;18.40;91.20;;;;;;5090319;28;20055;-67
2021/07/04 05:46:18;;;;;;;4.80;4.25;;;18.40;91.20;;;;;;5070411;28;20107;-66
2021/07/04 05:48:45;;;;;;;8.15;4.57;;;18.40;91.20;;;;;;5089023;28;20342;-66
2021/07/04 05:51:11;;;;;;;4.90;3.80;;;18.40;91.30;;;;;;5090087;28;20388;-66
2021/07/04 05:53:37;;;;;;;8.00;4.22;;;18.40;91.20;;;;;;5068552;28;20056;-67
2021/07/04 05:56:03;;;;;;;5.85;4.63;;;18.50;91.30;;;;;;5082554;28;20168;-66
2021/07/04 05:58:28;;;;;;;4.85;4.00;;;18.50;91.20;;;;;;5067114;28;20039;-66
2021/07/04 06:00:54;;;;;;;8.88;4.60;;;18.60;91.20;;;;;;5084983;28;20032;-66
2021/07/04 06:03:19;;;;;;;4.97;4.28;;;18.60;91.10;;;;;;5091215;28;20023;-66
2021/07/04 06:05:45;;;;;;;5.28;3.92;;;18.60;91.00;;;;;;5088999;28;20028;-66
2021/07/04 06:08:10;;;;;;;4.35;3.72;;;18.60;91.00;;;;;;5089215;28;20065;-66
2021/07/04 06:10:36;;;;;;;7.30;4.05;;;18.60;91.00;;;;;;5073008;28;20024;-67
2021/07/04 06:13:03;;;;;;;4.25;3.80;;;18.60;90.90;;;;;;5089759;28;20028;-66
2021/07/04 06:15:29;;;;;;;4.65;3.67;;;18.60;91.00;;;;;;5088194;28;20039;-66
2021/07/04 06:17:54;;;;;;;5.20;4.20;;;18.60;91.10;;;;;;5089397;28;20040;-65
2021/07/04 06:20:20;;;;;;;4.30;3.90;;;18.70;91.30;;;;;;5089991;28;20024;-66
2021/07/04 06:22:47;;;;;;;4.50;3.47;;;18.70;90.90;;;;;;5068240;28;20405;-66
2021/07/04 06:25:14;;;;;;;4.25;3.85;;;18.70;90.80;;;;;;5087139;28;20441;-67
2021/07/04 06:27:41;;;;;;;5.30;4.10;;;18.70;90.70;;;;;;5087935;28;20165;-67
2021/07/04 06:30:09;;;;;;;5.43;3.70;;;18.70;90.70;;;;;;5089463;28;20067;-66
2021/07/04 06:32:35;;;;;;;5.75;4.10;;;18.80;90.70;;;;;;5071520;28;20494;-65
2021/07/04 06:35:01;;;;;;;5.90;4.05;;;18.80;90.60;;;;;;5070409;28;20036;-67
2021/07/04 06:37:27;;;;;;;6.07;4.03;;;18.80;90.70;;;;;;5089670;28;20032;-66
2021/07/04 06:39:52;;;;;;;6.70;4.10;;;18.90;90.70;;;;;;5083037;28;20039;-67
2021/07/04 06:42:18;;;;;;;5.20;3.85;;;19.00;90.80;;;;;;5089415;28;20028;-67
2021/07/04 06:44:44;;;;;;;4.20;3.60;;;19.20;90.80;;;;;;5087779;28;20032;-66
2021/07/04 06:47:09;;;;;;;4.50;4.00;;;19.20;90.80;;;;;;5070698;28;20020;-67
2021/07/04 06:49:35;;;;;;;5.35;3.67;;;19.30;90.50;;;;;;5093445;28;20016;-66
2021/07/04 06:52:01;;;;;;;3.80;3.45;;;19.40;90.60;;;;;;5092533;28;20403;-66
2021/07/04 06:54:26;;;;;;;5.75;3.83;;;19.60;90.50;;;;;;5067632;28;20032;-67
2021/07/04 06:56:52;;;;;;;4.15;3.75;;;19.70;90.20;;;;;;5090617;28;20016;-66
2021/07/04 06:59:18;;;;;;;4.65;3.65;;;19.70;90.20;;;;;;5093156;28;20032;-66
2021/07/04 07:01:44;;;;;;;4.10;3.50;;;19.90;90.10;;;;;;5086916;28;20032;-66
2021/07/04 07:04:11;;;;;;;4.07;3.30;;;20.10;89.90;;;;;;5058890;28;20112;-66
2021/07/04 07:06:36;;;;;;;3.30;3.00;;;20.20;89.50;;;;;;5086010;28;20508;-66
2021/07/04 07:09:02;;;;;;;6.70;3.80;;;20.40;89.40;;;;;;5089783;28;20107;-67
2021/07/04 07:11:28;;;;;;;4.95;3.50;;;20.60;89.00;;;;;;5088218;28;20052;-67
2021/07/04 07:13:53;;;;;;;3.30;3.00;;;20.70;88.20;;;;;;5093406;28;20060;-66
2021/07/04 07:16:19;;;;;;;4.70;3.70;;;20.80;88.20;;;;;;5092042;28;20058;-67
2021/07/04 07:18:45;;;;;;;4.15;3.08;;;20.90;87.50;;;;;;5091593;28;20035;-66
2021/07/04 07:21:10;;;;;;;5.38;3.30;;;20.90;87.20;;;;;;5093229;28;20356;-66
2021/07/04 07:23:36;;;;;;;7.18;3.53;;;21.00;86.80;;;;;;5084387;28;20054;-67
2021/07/04 07:26:02;;;;;;;4.65;3.50;;;20.90;86.20;;;;;;5085776;28;20016;-66
2021/07/04 07:28:27;;;;;;;5.70;3.88;;;20.90;86.30;;;;;;5092536;28;20104;-67
2021/07/04 07:30:53;;;;;;;4.60;3.45;;;20.90;86.40;;;;;;5090124;28;20471;-67
2021/07/04 07:33:18;;;;;;;4.63;3.40;;;21.10;86.50;;;;;;5093092;28;20146;-66
2021/07/04 07:35:44;;;;;;;4.90;3.50;;;21.30;86.30;;;;;;5091793;28;20035;-67
2021/07/04 07:38:10;;;;;;;4.93;3.10;;;21.50;86.20;;;;;;5093303;28;20420;-66
2021/07/04 07:40:37;;;;;;;4.53;3.47;;;21.70;85.30;;;;;;5092534;28;20020;-67
2021/07/04 07:43:06;;;;;;;4.22;3.70;;;21.90;85.10;;;;;;5092627;28;20043;-66
2021/07/04 07:45:32;;;;;;;5.53;3.33;;;22.10;84.00;;;;;;5073361;28;20111;-67
2021/07/04 07:47:58;;;;;;;5.40;3.53;;;22.10;83.10;;;;;;5092987;28;20051;-67
2021/07/04 07:50:23;;;;;;;5.13;3.25;;;22.20;83.00;;;;;;5074531;28;20064;-67
2021/07/04 07:52:49;;;;;;;4.07;3.25;;;22.40;82.80;;;;;;5092273;28;20030;-66
2021/07/04 07:55:15;;;;;;;3.67;3.35;;;22.70;82.80;;;;;;5057110;28;20043;-66
2021/07/04 07:57:41;;;;;;;4.05;3.42;;;23.10;82.00;;;;;;5081926;28;20028;-66
2021/07/04 08:00:09;;;;;;;4.63;2.97;;;23.50;80.70;;;;;;5098669;28;20034;-67
2021/07/04 08:02:35;;;;;;;3.65;3.35;;;23.80;79.80;;;;;;5096885;28;20047;-66
2021/07/04 08:05:01;;;;;;;3.85;3.15;;;24.00;79.60;;;;;;5071621;28;20473;-67
2021/07/04 08:07:26;;;;;;;5.10;3.20;;;24.10;78.00;;;;;;5088562;28;20040;-67
2021/07/04 08:09:52;;;;;;;5.47;3.17;;;24.00;77.60;;;;;;5074212;28;20028;-66
2021/07/04 08:12:17;;;;;;;3.78;3.10;;;24.30;77.20;;;;;;5081517;28;20097;-67
2021/07/04 08:14:43;;;;;;;3.63;3.08;;;24.40;76.30;;;;;;5069757;28;20238;-65
2021/07/04 08:17:09;;;;;;;4.95;2.88;;;24.20;76.30;;;;;;5076998;28;20032;-70
2021/07/04 08:19:34;;;;;;;4.45;2.75;;;24.50;75.70;;;;;;5092522;28;20100;-72
2021/07/04 08:22:00;;;;;;;2.88;2.40;;;24.80;74.60;;;;;;5090463;28;20110;-71
2021/07/04 08:24:26;;;;;;;2.50;2.30;;;24.90;73.20;;;;;;5089304;28;20024;-72
2021/07/04 08:26:54;;;;;;;3.55;2.50;;;24.70;73.50;;;;;;5081464;28;20173;-71
2021/07/04 08:29:19;;;;;;;3.83;2.53;;;25.00;72.60;;;;;;5092020;28;20020;-72
2021/07/04 08:31:45;;;;;;;4.05;2.33;;;25.40;71.90;;;;;;5092142;28;20016;-72
2021/07/04 08:34:10;;;;;;;4.82;2.58;;;25.60;71.00;;;;;;5092216;28;20035;-72
2021/07/04 08:36:36;;;;;;;3.90;2.70;;;25.80;70.50;;;;;;5085100;28;20024;-71
2021/07/04 08:39:04;;;;;;;2.60;1.92;;;25.90;70.00;;;;;;5085370;28;20034;-71
2021/07/04 08:41:30;;;;;;;1.90;1.80;;;25.90;68.80;;;;;;5092445;28;20611;-72
2021/07/04 08:43:55;;;;;;;2.30;2.10;;;26.00;69.30;;;;;;5091556;28;20107;-70
2021/07/04 08:46:21;;;;;;;1.90;1.80;;;26.30;68.20;;;;;;5082833;28;20103;-70
2021/07/04 08:48:47;;;;;;;2.38;2.10;;;26.90;66.80;;;;;;5065675;28;20032;-70
2021/07/04 08:51:12;;;;;;;2.20;2.00;;;27.40;65.00;;;;;;5082172;28;20032;-69
2021/07/04 08:53:39;;;;;;;2.33;2.15;;;27.90;64.10;;;;;;5088379;28;20028;-70
2021/07/04 08:56:06;;;;;;;3.78;2.35;;;28.00;63.60;;;;;;5082809;28;20373;-69
2021/07/04 08:58:31;;;;;;;2.60;2.40;;;28.20;62.40;;;;;;5090817;28;20069;-70
2021/07/04 09:01:14;;;;;;;3.40;2.28;;;28.20;62.10;;;;;;5091506;28;20024;-70
2021/07/04 09:03:43;;;;;;;2.45;2.10;;;28.60;60.70;;;;;;5084242;28;20023;-69
2021/07/04 09:06:09;;;;;;;2.47;2.28;;;28.80;60.00;;;;;;5074260;28;20020;-70
2021/07/04 09:08:36;;;;;;;2.60;2.40;;;28.30;59.30;;;;;;5078014;28;20035;-69
2021/07/04 09:11:11;;;;;;;2.08;1.98;;;28.30;59.90;;;;;;5062642;28;20085;-71
2021/07/04 09:13:37;;;;;;;2.88;2.28;;;27.70;61.10;;;;;;5091482;28;20051;-71
2021/07/04 09:16:07;;;;;;;2.88;1.95;;;27.00;63.60;;;;;;5090036;28;20028;-70
2021/07/04 09:18:33;;;;;;;2.50;2.30;;;26.60;64.50;;;;;;5091457;28;20024;-68
2021/07/04 09:20:58;;;;;;;2.17;2.08;;;26.40;64.50;;;;;;5091325;28;20347;-71
2021/07/04 09:23:36;;;;;;;2.50;2.30;;;26.20;64.40;;;;;;5084771;28;20161;-71
2021/07/04 09:26:02;;;;;;;2.50;2.30;;;25.90;64.40;;;;;;5070156;28;20028;-71
2021/07/04 09:28:28;;;;;;;2.33;2.13;;;25.60;65.40;;;;;;5090763;28;20024;-70
2021/07/04 09:30:58;;;;;;;2.00;1.80;;;25.50;66.30;;;;;;5091656;28;20039;-69
2021/07/04 09:33:32;;;;;;;2.28;2.08;;;25.60;66.00;;;;;;5072793;28;20035;-69
2021/07/04 09:36:00;;;;;;;2.05;1.95;;;25.80;65.10;;;;;;5071974;28;20089;-70
2021/07/04 09:38:33;;;;;;;2.28;2.00;;;25.30;65.90;;;;;;5072612;28;20035;-69
2021/07/04 09:41:00;;;;;;;2.92;2.00;;;24.90;67.10;;;;;;5091405;28;20373;-70
2021/07/04 09:43:30;;;;;;;2.10;2.00;;;24.50;68.10;;;;;;5072273;28;20043;-68
2021/07/04 09:45:58;;;;;;;2.10;1.92;;;24.20;68.50;;;;;;5072043;28;20058;-69
2021/07/04 09:48:29;;;;;;;2.67;2.08;;;24.10;69.30;;;;;;5072375;28;20028;-71
2021/07/04 09:51:00;;;;;;;2.40;2.20;;;24.00;69.10;;;;;;5090457;28;20060;-70
2021/07/04 09:53:37;;;;;;;2.57;1.93;;;23.90;68.90;;;;;;5088007;28;20036;-70
2021/07/04 09:56:10;;;;;;;2.08;1.98;;;23.70;68.70;;;;;;5077585;28;20515;-70
2021/07/04 09:58:36;;;;;;;4.30;2.63;;;23.60;69.50;;;;;;5084520;28;20089;-71
2021/07/04 10:01:02;;;;;;;2.70;2.10;;;23.60;70.40;;;;;;5091246;28;20020;-69
2021/07/04 10:03:28;;;;;;;2.08;1.98;;;23.50;70.20;;;;;;5087716;28;20020;-70
2021/07/04 10:05:54;;;;;;;3.55;2.33;;;23.50;70.50;;;;;;5089246;28;20032;-69
2021/07/04 10:08:41;;;;;;;3.78;2.13;;;23.50;70.30;;;;;;5085498;28;20024;-70
2021/07/04 10:11:12;;;;;;;2.65;2.22;;;23.40;71.10;;;;;;5072322;28;20035;-67
2021/07/04 10:13:41;;;;;;;2.40;2.20;;;23.30;70.80;;;;;;5072018;28;20047;-69
2021/07/04 10:16:09;;;;;;;2.42;2.22;;;23.30;71.30;;;;;;5089392;28;20548;-69
2021/07/04 10:18:36;;;;;;;8.70;3.40;;;23.50;71.30;;;;;;5089755;28;20113;-69
2021/07/04 10:21:03;;;;;;;3.78;2.38;;;23.60;70.70;;;;;;5071520;28;20020;-70
2021/07/04 10:23:28;;;;;;;2.47;2.28;;;23.80;70.60;;;;;;5086878;28;20380;-70
2021/07/04 10:25:56;;;;;;;2.97;2.20;;;24.20;70.80;;;;;;5057781;28;20029;-71
2021/07/04 10:28:30;;;;;;;2.72;2.08;;;24.40;70.00;;;;;;5071449;28;20031;-70
2021/07/04 10:30:58;;;;;;;1.85;1.75;;;24.80;70.30;;;;;;5090077;28;20028;-71
2021/07/04 10:33:32;;;;;;;2.08;1.98;;;25.20;70.90;;;;;;5089867;28;20021;-69
2021/07/04 10:36:06;;;;;;;2.92;2.08;;;25.70;70.10;;;;;;5083848;28;20050;-71
2021/07/04 10:38:51;;;;;;;2.53;2.33;;;26.20;68.50;;;;;;5071125;28;20055;-68
2021/07/04 10:41:18;;;;;;;2.35;2.15;;;26.30;66.90;;;;;;5088512;28;20028;-69
2021/07/04 10:44:06;;;;;;;2.38;1.95;;;26.30;66.00;;;;;;5090136;28;20024;-69
2021/07/04 10:46:43;;;;;;;2.60;2.10;;;26.40;66.60;;;;;;5071608;28;20020;-68
2021/07/04 10:49:15;;;;;;;2.20;1.83;;;26.50;65.90;;;;;;5090076;28;20492;-69
2021/07/04 10:51:54;;;;;;;2.33;2.13;;;26.50;65.10;;;;;;5075755;28;20029;-69
2021/07/04 10:54:47;;;;;;;2.05;1.95;;;26.50;64.60;;;;;;5065226;28;20071;-70
2021/07/04 10:57:16;;;;;;;1.90;1.80;;;26.60;64.70;;;;;;5070257;28;20069;-71
2021/07/04 11:00:10;;;;;;;2.97;2.00;;;26.70;65.30;;;;;;5087144;28;20085;-69
2021/07/04 11:02:36;;;;;;;4.95;1.83;;;26.70;65.20;;;;;;5088551;28;20016;-70
2021/07/04 11:05:03;;;;;;;2.30;2.10;;;26.60;64.70;;;;;;5088686;28;20024;-68
2021/07/04 11:08:15;;;;;;;2.45;2.13;;;26.40;63.80;;;;;;5088614;28;20028;-71
2021/07/04 11:10:49;;;;;;;1.88;1.75;;;26.10;63.70;;;;;;4994021;28;20415;-70
2021/07/04 11:13:14;;;;;;;2.20;2.00;;;25.80;63.40;;;;;;4984308;28;20042;-70
2021/07/04 11:15:41;;;;;;;3.78;2.03;;;25.60;64.40;;;;;;5042221;28;20119;-70
2021/07/04 11:18:11;;;;;;;2.50;2.30;;;25.60;64.20;;;;;;5089542;28;20060;-71
2021/07/04 11:20:46;;;;;;;2.83;1.98;;;25.50;64.40;;;;;;5071340;28;20032;-71
2021/07/04 11:23:23;;;;;;;1.95;1.83;;;25.50;64.50;;;;;;5088976;28;20419;-69
2021/07/04 11:25:53;;;;;;;2.00;1.90;;;25.40;64.40;;;;;;5074393;28;20107;-72
2021/07/04 11:28:18;;;;;;;3.47;2.20;;;25.40;64.90;;;;;;5069132;28;20085;-71
2021/07/04 11:30:46;;;;;;;2.40;2.20;;;25.30;65.00;;;;;;5064253;28;20489;-73
2021/07/04 11:33:37;;;;;;;2.05;1.95;;;25.20;65.00;;;;;;5064567;28;20400;-71
2021/07/04 11:36:14;;;;;;;2.53;2.33;;;25.20;64.60;;;;;;5085425;28;20380;-69
2021/07/04 11:38:52;;;;;;;2.33;2.13;;;25.00;65.30;;;;;;5084826;28;20568;-72
2021/07/04 11:41:20;;;;;;;2.00;1.90;;;24.90;65.00;;;;;;5081244;28;20020;-72
2021/07/04 11:43:47;;;;;;;2.10;2.00;;;24.80;65.00;;;;;;5089371;28;20481;-76
2021/07/04 11:46:15;;;;;;;2.20;2.00;;;24.70;65.60;;;;;;5081187;28;20021;-70
2021/07/04 11:48:59;;;;;;;2.03;1.92;;;24.60;65.20;;;;;;5074128;28;20047;-68
2021/07/04 11:51:50;;;;;;;2.08;1.80;;;24.40;65.60;;;;;;5089688;28;20063;-72
2021/07/04 11:54:33;;;;;;;2.40;2.13;;;24.30;65.90;;;;;;5089147;28;20038;-71
2021/07/04 12:00:14;;;;;;;2.05;1.90;;;23.90;67.10;;;;;;5093083;28;20119;-71
2021/07/04 12:02:44;;;;;;;2.33;2.13;;;23.80;68.20;;;;;;5089020;28;20032;-71
2021/07/04 12:05:11;;;;;;;3.28;2.40;;;23.70;69.50;;;;;;5086383;28;20073;-71
2021/07/04 12:07:37;;;;;;;2.35;2.15;;;23.60;70.20;;;;;;5074418;28;20116;-72
2021/07/04 12:10:04;;;;;;;2.20;2.00;;;23.50;69.70;;;;;;5092105;28;20616;-71
2021/07/04 12:12:32;;;;;;;2.50;2.30;;;23.40;70.50;;;;;;5092854;28;20103;-71
2021/07/04 12:15:03;;;;;;;2.08;1.98;;;23.30;71.30;;;;;;5078164;28;20028;-71
2021/07/04 12:17:32;;;;;;;3.22;3.00;;;23.30;71.70;;;;;;5092529;28;20422;-71
2021/07/04 12:19:57;;;;;;;3.08;2.38;;;23.20;71.90;;;;;;5091980;28;20024;-70
2021/07/04 12:22:27;;;;;;;2.97;2.33;;;23.20;72.30;;;;;;5091659;28;20077;-70
2021/07/04 12:24:54;;;;;;;2.90;2.20;;;23.30;72.70;;;;;;5090852;28;20020;-71
2021/07/04 12:27:33;;;;;;;3.72;2.42;;;23.40;72.10;;;;;;5091609;28;20024;-72
2021/07/04 12:30:00;;;;;;;2.60;2.40;;;23.40;72.00;;;;;;5091724;28;20500;-71
2021/07/04 12:32:31;;;;;;;3.70;2.70;;;23.50;71.40;;;;;;5089665;28;20028;-73
2021/07/04 12:34:57;;;;;;;2.40;2.22;;;23.50;71.40;;;;;;5090192;28;20027;-72
2021/07/04 12:37:24;;;;;;;3.63;2.50;;;23.50;71.40;;;;;;5068703;28;20048;-67
2021/07/04 12:40:08;;;;;;;2.90;2.42;;;23.40;72.00;;;;;;5091586;28;20031;-67
2021/07/04 12:42:34;;;;;;;2.95;2.60;;;23.50;71.60;;;;;;5091639;28;20055;-67
2021/07/04 12:45:09;;;;;;;3.40;2.90;;;23.40;71.40;;;;;;5091143;28;20079;-67
2021/07/04 12:47:34;;;;;;;3.03;2.60;;;23.40;71.10;;;;;;5091497;28;20625;-68
2021/07/04 12:50:04;;;;;;;3.63;2.58;;;23.30;71.40;;;;;;5081489;28;20044;-68
2021/07/04 12:52:30;;;;;;;2.30;2.10;;;23.30;72.60;;;;;;5071345;28;20052;-67